Nearby METAR Reports

 

K6I2 - Springfield, Kentucky, USA
Distance from station: SSE 22mi, 36km
Updated: 01/29/2023 4:55pm
Overcast
Overcast
 Wind from S
Wind: S 6 mph , 9 km/h
Temperature: 46°F , 8°C
Wind Chill: 43°F , 6°C
Dew Point: 46°F , 8°C
Humidity: 100%
Barometer: 30.15 inHg , 1021 hPa
Clouds: Overcast
Visibility: 10 miles , 16 km
Cloud details: Overcast 1000 ft
2023/01/29 21:55 K6I2 292155Z AUTO 19005KT 10SM OVC010 08/08 A3015 RMK AO2
KLOU - Louisville/Bowmn, Kentucky, USA
Distance from station: NW 25mi, 40km
Updated: 01/29/2023 4:53pm
Overcast
Overcast
 Wind from WSW
Wind: WSW 5 mph , 7 km/h
Temperature: 46°F , 8°C
Wind Chill: 44°F , 7°C
Dew Point: 46°F , 8°C
Humidity: 100%
Barometer: 30.13 inHg , 1020.3 hPa
Clouds: Overcast
Visibility: 10 miles , 16 km
Cloud details: Overcast 800 ft
2023/01/29 21:53 KLOU 292153Z 25004KT 10SM OVC008 08/08 A3013 RMK AO2 SLP205 T00830078 $
 
KSDF - Louisville, Kentucky, USA
Distance from station: NW 25mi, 41km
Updated: 01/29/2023 4:56pm
Overcast
Overcast
 Wind from WSW
Wind: WSW 6 mph , 9 km/h
Temperature: 48°F , 9°C
Wind Chill: 45°F , 7°C
Dew Point: 46°F , 8°C
Humidity: 94%
Barometer: 30.13 inHg , 1020.3 hPa
Clouds: Overcast
Visibility: 7 miles , 11 km
Cloud details: Overcast 800 ft
2023/01/29 21:56 KSDF 292156Z 24005KT 7SM OVC008 09/08 A3013 RMK AO2 CIG 007V011 SLP205 T00890078
KEKX - Elizabeth, Kentucky, USA
Distance from station: WSW 30mi, 48km
Updated: 01/29/2023 4:55pm
Overcast
Overcast
 Wind from SW
Wind: SW 5 mph , 7 km/h
Temperature: 46°F , 8°C
Wind Chill: 44°F , 7°C
Dew Point: 45°F , 7°C
Humidity: 93%
Barometer: 30.14 inHg , 1020.7 hPa
Clouds: Overcast
Visibility: 10 miles , 16 km
Cloud details: Overcast 800 ft
2023/01/29 21:55 KEKX 292155Z AUTO 23004KT 10SM OVC008 08/07 A3014 RMK AO2 T00760070
 
KFFT - Frankfort, Kentucky, USA
Distance from station: NE 32mi, 51km
Updated: 01/29/2023 4:53pm
Overcast
Overcast
 Wind from WSW
Wind: WSW 5 mph , 7 km/h
Temperature: 46°F , 8°C
Wind Chill: 44°F , 7°C
Dew Point: 45°F , 7°C
Humidity: 93%
Barometer: 30.14 inHg , 1020.7 hPa
Clouds: Overcast
Visibility: 10 miles , 16 km
Cloud details: Overcast 600 ft
2023/01/29 21:53 KFFT 292153Z AUTO 24004KT 10SM OVC006 08/07 A3014 RMK AO2 CIG 005V011 SLP208 T00830067
KFTK - Fort Knox/Godman, Kentucky, USA
Distance from station: W 32mi, 51km
Updated: 01/29/2023 4:55pm
Overcast
Overcast
 Wind from SSW
Wind: SSW 6 mph , 9 km/h
Temperature: 46°F , 8°C
Wind Chill: 43°F , 6°C
Dew Point: 46°F , 8°C
Humidity: 100%
Barometer: 30.12 inHg , 1020 hPa
Clouds: Overcast
Visibility: 10 miles , 16 km
Cloud details: Overcast 500 ft
2023/01/29 21:55 KFTK 292155Z AUTO 20005KT 10SM OVC005 08/08 A3012 RMK AO2 SLP205 T00790078 $
 
KDVK - Danville, Kentucky, USA
Distance from station: SE 42mi, 67km
Updated: 01/29/2023 4:50pm
Overcast
Overcast
 Wind from calm
Wind: Calm
Temperature: 45°F , 7°C
Dew Point: 43°F , 6°C
Humidity: 93%
Barometer: 30.15 inHg , 1021 hPa
Clouds: Overcast
Visibility: 10 miles , 16 km
Cloud details: Overcast 1000 ft
2023/01/29 21:50 KDVK 292150Z AUTO 00000KT 10SM OVC010 07/06 A3015 RMK AO2
KLEX - Lexington, Kentucky, USA
Distance from station: E 43mi, 70km
Updated: 01/29/2023 4:54pm
Overcast
Overcast
 Wind from SSW
Wind: SSW 7 mph , 11 km/h
Temperature: 46°F , 8°C
Wind Chill: 42°F , 6°C
Dew Point: 43°F , 6°C
Humidity: 87%
Barometer: 30.14 inHg , 1020.7 hPa
Clouds: Overcast
Visibility: 10 miles , 16 km
Cloud details: Overcast 900 ft
2023/01/29 21:54 KLEX 292154Z 21006KT 10SM OVC009 08/06 A3014 RMK AO2 CIG 007V012 SLP207 T00830061